Terminal Aerodrome Forecast
Issued by NWS Charleston, WV

Current Version | Previous Version | Graphics & Text | Print | Product List | Glossary On
Versions: 1 2 3 4 5 6 7 8 9 10 11 12 13 14 15 16 17 18 19 20 21 22 23 24 25
000
FTUS41 KRLX 171600 AAA
TAFBKW
TAF AMD
KBKW 171605Z 1716/1812 27008G17KT 6SM -SHSNDZ SCT009 OVC015
      TEMPO 1716/1719 4SM -SHSN BR BKN008
     FM171900 29010G15KT P6SM OVC017
     FM180500 29009KT P6SM OVC010=

USA.gov is the U.S. government's official web portal to all federal, state and local government web resources and services.